sensor_id;sensor_type;location;lat;lon;timestamp;P1;durP1;ratioP1;P2;durP2;ratioP2
22871;SDS011;11603;44.910;8.630;2023-05-09T00:01:46;24.10;;;19.48;;
22871;SDS011;11603;44.910;8.630;2023-05-09T00:04:12;26.33;;;19.55;;
22871;SDS011;11603;44.910;8.630;2023-05-09T00:06:37;23.98;;;19.73;;
22871;SDS011;11603;44.910;8.630;2023-05-09T00:09:03;24.08;;;19.77;;
22871;SDS011;11603;44.910;8.630;2023-05-09T00:11:29;22.27;;;19.63;;
22871;SDS011;11603;44.910;8.630;2023-05-09T00:13:55;26.40;;;19.60;;
22871;SDS011;11603;44.910;8.630;2023-05-09T00:16:21;27.65;;;20.27;;
22871;SDS011;11603;44.910;8.630;2023-05-09T00:18:48;22.50;;;20.08;;
22871;SDS011;11603;44.910;8.630;2023-05-09T00:21:13;22.65;;;19.17;;
22871;SDS011;11603;44.910;8.630;2023-05-09T00:23:39;26.15;;;20.08;;
22871;SDS011;11603;44.910;8.630;2023-05-09T00:26:05;29.25;;;20.30;;
22871;SDS011;11603;44.910;8.630;2023-05-09T00:28:30;24.83;;;20.75;;
22871;SDS011;11603;44.910;8.630;2023-05-09T00:30:56;23.73;;;20.55;;
22871;SDS011;11603;44.910;8.630;2023-05-09T00:33:22;27.17;;;20.70;;
22871;SDS011;11603;44.910;8.630;2023-05-09T00:35:51;23.25;;;20.40;;
22871;SDS011;11603;44.910;8.630;2023-05-09T00:38:18;28.65;;;21.15;;
22871;SDS011;11603;44.910;8.630;2023-05-09T00:40:43;22.92;;;19.98;;
22871;SDS011;11603;44.910;8.630;2023-05-09T00:43:09;24.60;;;20.02;;
22871;SDS011;11603;44.910;8.630;2023-05-09T00:45:35;27.35;;;20.10;;
22871;SDS011;11603;44.910;8.630;2023-05-09T00:48:00;28.80;;;20.48;;
22871;SDS011;11603;44.910;8.630;2023-05-09T00:50:26;29.42;;;20.80;;
22871;SDS011;11603;44.910;8.630;2023-05-09T00:52:51;28.30;;;21.02;;
22871;SDS011;11603;44.910;8.630;2023-05-09T00:55:17;26.10;;;20.73;;
22871;SDS011;11603;44.910;8.630;2023-05-09T00:57:43;24.25;;;20.92;;
22871;SDS011;11603;44.910;8.630;2023-05-09T01:00:09;22.80;;;20.42;;
22871;SDS011;11603;44.910;8.630;2023-05-09T01:02:38;26.35;;;20.38;;
22871;SDS011;11603;44.910;8.630;2023-05-09T01:05:05;22.85;;;20.38;;
22871;SDS011;11603;44.910;8.630;2023-05-09T01:07:35;24.75;;;21.42;;
22871;SDS011;11603;44.910;8.630;2023-05-09T01:15:58;24.88;;;21.58;;
22871;SDS011;11603;44.910;8.630;2023-05-09T01:21:20;25.90;;;21.15;;
22871;SDS011;11603;44.910;8.630;2023-05-09T01:23:55;27.50;;;21.17;;
22871;SDS011;11603;44.910;8.630;2023-05-09T01:26:45;25.52;;;21.42;;
22871;SDS011;11603;44.910;8.630;2023-05-09T01:32:08;25.48;;;21.13;;
22871;SDS011;11603;44.910;8.630;2023-05-09T01:34:39;24.67;;;21.40;;
22871;SDS011;11603;44.910;8.630;2023-05-09T01:37:08;26.88;;;21.58;;
22871;SDS011;11603;44.910;8.630;2023-05-09T01:39:36;24.67;;;21.17;;
22871;SDS011;11603;44.910;8.630;2023-05-09T01:42:06;23.25;;;20.60;;
22871;SDS011;11603;44.910;8.630;2023-05-09T01:44:40;28.40;;;20.98;;
22871;SDS011;11603;44.910;8.630;2023-05-09T01:47:07;25.77;;;21.25;;
22871;SDS011;11603;44.910;8.630;2023-05-09T01:49:34;25.40;;;22.25;;
22871;SDS011;11603;44.910;8.630;2023-05-09T01:52:04;26.75;;;21.55;;
22871;SDS011;11603;44.910;8.630;2023-05-09T01:54:35;29.48;;;22.73;;
22871;SDS011;11603;44.910;8.630;2023-05-09T01:57:03;28.52;;;21.55;;
22871;SDS011;11603;44.910;8.630;2023-05-09T01:59:30;26.73;;;22.23;;
22871;SDS011;11603;44.910;8.630;2023-05-09T02:01:59;27.40;;;21.98;;
22871;SDS011;11603;44.910;8.630;2023-05-09T02:04:27;26.30;;;23.13;;
22871;SDS011;11603;44.910;8.630;2023-05-09T02:06:55;28.33;;;23.67;;
22871;SDS011;11603;44.910;8.630;2023-05-09T02:09:23;28.80;;;24.50;;
22871;SDS011;11603;44.910;8.630;2023-05-09T02:11:48;30.50;;;23.88;;
22871;SDS011;11603;44.910;8.630;2023-05-09T02:14:14;29.52;;;24.38;;
22871;SDS011;11603;44.910;8.630;2023-05-09T02:16:40;27.98;;;24.40;;
22871;SDS011;11603;44.910;8.630;2023-05-09T02:19:06;30.50;;;24.65;;
22871;SDS011;11603;44.910;8.630;2023-05-09T02:21:31;29.60;;;24.45;;
22871;SDS011;11603;44.910;8.630;2023-05-09T02:23:57;30.38;;;25.30;;
22871;SDS011;11603;44.910;8.630;2023-05-09T02:26:26;28.25;;;24.70;;
22871;SDS011;11603;44.910;8.630;2023-05-09T02:28:53;32.30;;;25.35;;
22871;SDS011;11603;44.910;8.630;2023-05-09T02:31:20;33.20;;;26.17;;
22871;SDS011;11603;44.910;8.630;2023-05-09T02:33:48;32.55;;;26.13;;
22871;SDS011;11603;44.910;8.630;2023-05-09T02:36:15;29.48;;;24.80;;
22871;SDS011;11603;44.910;8.630;2023-05-09T02:38:41;30.98;;;26.02;;
22871;SDS011;11603;44.910;8.630;2023-05-09T02:41:12;33.28;;;26.42;;
22871;SDS011;11603;44.910;8.630;2023-05-09T02:43:41;32.13;;;25.75;;
22871;SDS011;11603;44.910;8.630;2023-05-09T02:46:07;33.88;;;26.80;;
22871;SDS011;11603;44.910;8.630;2023-05-09T02:48:34;32.92;;;25.55;;
22871;SDS011;11603;44.910;8.630;2023-05-09T02:51:00;29.38;;;26.10;;
22871;SDS011;11603;44.910;8.630;2023-05-09T02:53:25;31.02;;;24.92;;
22871;SDS011;11603;44.910;8.630;2023-05-09T02:55:51;30.67;;;26.80;;
22871;SDS011;11603;44.910;8.630;2023-05-09T02:58:18;33.47;;;25.33;;
22871;SDS011;11603;44.910;8.630;2023-05-09T03:00:44;30.30;;;25.63;;
22871;SDS011;11603;44.910;8.630;2023-05-09T03:03:11;29.27;;;26.08;;
22871;SDS011;11603;44.910;8.630;2023-05-09T03:05:37;34.20;;;27.55;;
22871;SDS011;11603;44.910;8.630;2023-05-09T03:08:02;31.85;;;27.17;;
22871;SDS011;11603;44.910;8.630;2023-05-09T03:10:29;33.42;;;27.85;;
22871;SDS011;11603;44.910;8.630;2023-05-09T03:12:55;32.13;;;26.83;;
22871;SDS011;11603;44.910;8.630;2023-05-09T03:15:20;34.17;;;28.23;;
22871;SDS011;11603;44.910;8.630;2023-05-09T03:17:46;33.42;;;26.77;;
22871;SDS011;11603;44.910;8.630;2023-05-09T03:20:13;35.28;;;27.42;;
22871;SDS011;11603;44.910;8.630;2023-05-09T03:22:40;33.40;;;27.85;;
22871;SDS011;11603;44.910;8.630;2023-05-09T03:25:08;35.28;;;28.58;;
22871;SDS011;11603;44.910;8.630;2023-05-09T03:27:34;36.50;;;28.92;;
22871;SDS011;11603;44.910;8.630;2023-05-09T03:30:01;33.22;;;28.30;;
22871;SDS011;11603;44.910;8.630;2023-05-09T03:32:27;33.90;;;28.35;;
22871;SDS011;11603;44.910;8.630;2023-05-09T03:34:53;36.75;;;28.75;;
22871;SDS011;11603;44.910;8.630;2023-05-09T03:37:18;33.40;;;28.38;;
22871;SDS011;11603;44.910;8.630;2023-05-09T03:39:45;36.22;;;31.23;;
22871;SDS011;11603;44.910;8.630;2023-05-09T03:42:10;36.35;;;30.83;;
22871;SDS011;11603;44.910;8.630;2023-05-09T03:44:38;39.65;;;30.30;;
22871;SDS011;11603;44.910;8.630;2023-05-09T03:47:03;41.72;;;31.02;;
22871;SDS011;11603;44.910;8.630;2023-05-09T03:49:35;36.58;;;30.52;;
22871;SDS011;11603;44.910;8.630;2023-05-09T03:52:02;36.50;;;30.77;;
22871;SDS011;11603;44.910;8.630;2023-05-09T03:54:28;36.95;;;30.63;;
22871;SDS011;11603;44.910;8.630;2023-05-09T03:56:54;36.58;;;30.73;;
22871;SDS011;11603;44.910;8.630;2023-05-09T03:59:19;38.45;;;31.70;;
22871;SDS011;11603;44.910;8.630;2023-05-09T04:01:45;39.30;;;30.85;;
22871;SDS011;11603;44.910;8.630;2023-05-09T04:04:11;38.53;;;30.92;;
22871;SDS011;11603;44.910;8.630;2023-05-09T04:06:36;37.78;;;31.08;;
22871;SDS011;11603;44.910;8.630;2023-05-09T04:09:04;38.25;;;30.67;;
22871;SDS011;11603;44.910;8.630;2023-05-09T04:11:31;38.72;;;31.38;;
22871;SDS011;11603;44.910;8.630;2023-05-09T04:13:58;38.47;;;32.55;;
22871;SDS011;11603;44.910;8.630;2023-05-09T04:16:29;43.50;;;30.95;;
22871;SDS011;11603;44.910;8.630;2023-05-09T04:18:54;41.38;;;30.85;;
22871;SDS011;11603;44.910;8.630;2023-05-09T04:21:20;36.63;;;30.98;;
22871;SDS011;11603;44.910;8.630;2023-05-09T04:23:48;35.25;;;30.35;;
22871;SDS011;11603;44.910;8.630;2023-05-09T04:26:15;41.25;;;32.03;;
22871;SDS011;11603;44.910;8.630;2023-05-09T04:28:44;39.55;;;30.52;;
22871;SDS011;11603;44.910;8.630;2023-05-09T04:31:12;35.17;;;30.05;;
22871;SDS011;11603;44.910;8.630;2023-05-09T04:33:40;40.15;;;32.63;;
22871;SDS011;11603;44.910;8.630;2023-05-09T04:36:05;39.58;;;30.33;;
22871;SDS011;11603;44.910;8.630;2023-05-09T04:38:32;37.47;;;31.10;;
22871;SDS011;11603;44.910;8.630;2023-05-09T04:40:58;38.00;;;31.25;;
22871;SDS011;11603;44.910;8.630;2023-05-09T04:43:23;40.95;;;31.45;;
22871;SDS011;11603;44.910;8.630;2023-05-09T04:45:52;38.63;;;32.35;;
22871;SDS011;11603;44.910;8.630;2023-05-09T04:48:18;43.85;;;33.40;;
22871;SDS011;11603;44.910;8.630;2023-05-09T04:50:44;42.15;;;32.95;;
22871;SDS011;11603;44.910;8.630;2023-05-09T04:53:12;40.47;;;32.15;;
22871;SDS011;11603;44.910;8.630;2023-05-09T04:55:38;39.90;;;32.55;;
22871;SDS011;11603;44.910;8.630;2023-05-09T04:58:04;38.63;;;32.45;;
22871;SDS011;11603;44.910;8.630;2023-05-09T05:00:30;39.35;;;32.08;;
22871;SDS011;11603;44.910;8.630;2023-05-09T05:02:57;43.25;;;33.45;;
22871;SDS011;11603;44.910;8.630;2023-05-09T05:05:25;40.38;;;32.75;;
22871;SDS011;11603;44.910;8.630;2023-05-09T05:07:50;39.53;;;33.05;;
22871;SDS011;11603;44.910;8.630;2023-05-09T05:10:20;40.30;;;33.30;;
22871;SDS011;11603;44.910;8.630;2023-05-09T05:12:53;41.22;;;33.40;;
22871;SDS011;11603;44.910;8.630;2023-05-09T05:15:21;38.33;;;32.33;;
22871;SDS011;11603;44.910;8.630;2023-05-09T05:17:48;41.17;;;33.35;;
22871;SDS011;11603;44.910;8.630;2023-05-09T05:20:17;42.42;;;32.20;;
22871;SDS011;11603;44.910;8.630;2023-05-09T05:22:44;42.03;;;33.75;;
22871;SDS011;11603;44.910;8.630;2023-05-09T05:25:10;44.30;;;33.28;;
22871;SDS011;11603;44.910;8.630;2023-05-09T05:27:47;40.58;;;31.92;;
22871;SDS011;11603;44.910;8.630;2023-05-09T05:30:13;45.35;;;32.83;;
22871;SDS011;11603;44.910;8.630;2023-05-09T05:32:40;38.92;;;32.55;;
22871;SDS011;11603;44.910;8.630;2023-05-09T05:35:06;45.90;;;33.25;;
22871;SDS011;11603;44.910;8.630;2023-05-09T05:37:35;40.50;;;31.45;;
22871;SDS011;11603;44.910;8.630;2023-05-09T05:40:07;32.35;;;25.40;;
22871;SDS011;11603;44.910;8.630;2023-05-09T05:42:39;30.83;;;22.80;;
22871;SDS011;11603;44.910;8.630;2023-05-09T05:45:05;31.88;;;23.13;;
22871;SDS011;11603;44.910;8.630;2023-05-09T05:47:36;26.40;;;21.90;;
22871;SDS011;11603;44.910;8.630;2023-05-09T05:50:03;26.13;;;20.70;;
22871;SDS011;11603;44.910;8.630;2023-05-09T05:52:39;23.98;;;20.90;;
22871;SDS011;11603;44.910;8.630;2023-05-09T05:55:08;26.45;;;21.10;;
22871;SDS011;11603;44.910;8.630;2023-05-09T05:57:34;27.30;;;21.77;;
22871;SDS011;11603;44.910;8.630;2023-05-09T06:00:02;29.40;;;22.25;;
22871;SDS011;11603;44.910;8.630;2023-05-09T06:02:41;26.60;;;21.13;;
22871;SDS011;11603;44.910;8.630;2023-05-09T06:05:17;24.15;;;20.70;;
22871;SDS011;11603;44.910;8.630;2023-05-09T06:07:43;25.73;;;21.95;;
22871;SDS011;11603;44.910;8.630;2023-05-09T06:10:08;30.90;;;23.92;;
22871;SDS011;11603;44.910;8.630;2023-05-09T06:12:34;34.08;;;28.35;;
22871;SDS011;11603;44.910;8.630;2023-05-09T06:15:00;31.75;;;27.77;;
22871;SDS011;11603;44.910;8.630;2023-05-09T06:17:26;37.63;;;30.33;;
22871;SDS011;11603;44.910;8.630;2023-05-09T06:19:54;34.90;;;29.08;;
22871;SDS011;11603;44.910;8.630;2023-05-09T06:22:19;37.97;;;30.17;;
22871;SDS011;11603;44.910;8.630;2023-05-09T06:24:45;33.03;;;29.02;;
22871;SDS011;11603;44.910;8.630;2023-05-09T06:27:11;37.65;;;28.55;;
22871;SDS011;11603;44.910;8.630;2023-05-09T06:29:36;31.75;;;27.27;;
22871;SDS011;11603;44.910;8.630;2023-05-09T06:32:02;35.38;;;27.25;;
22871;SDS011;11603;44.910;8.630;2023-05-09T06:34:27;32.90;;;27.65;;
22871;SDS011;11603;44.910;8.630;2023-05-09T06:36:53;34.30;;;26.30;;
22871;SDS011;11603;44.910;8.630;2023-05-09T06:39:18;34.20;;;26.50;;
22871;SDS011;11603;44.910;8.630;2023-05-09T06:41:44;34.33;;;26.77;;
22871;SDS011;11603;44.910;8.630;2023-05-09T06:44:09;32.67;;;26.48;;
22871;SDS011;11603;44.910;8.630;2023-05-09T06:46:35;35.33;;;28.08;;
22871;SDS011;11603;44.910;8.630;2023-05-09T06:49:00;34.28;;;28.17;;
22871;SDS011;11603;44.910;8.630;2023-05-09T06:51:26;35.00;;;28.17;;
22871;SDS011;11603;44.910;8.630;2023-05-09T06:53:52;37.10;;;30.08;;
22871;SDS011;11603;44.910;8.630;2023-05-09T06:56:17;37.80;;;29.90;;
22871;SDS011;11603;44.910;8.630;2023-05-09T06:58:45;37.30;;;30.60;;
22871;SDS011;11603;44.910;8.630;2023-05-09T07:01:13;35.25;;;30.15;;
22871;SDS011;11603;44.910;8.630;2023-05-09T07:03:39;39.90;;;29.30;;
22871;SDS011;11603;44.910;8.630;2023-05-09T07:06:04;36.67;;;28.90;;
22871;SDS011;11603;44.910;8.630;2023-05-09T07:08:30;36.97;;;29.48;;
22871;SDS011;11603;44.910;8.630;2023-05-09T07:10:55;36.15;;;29.35;;
22871;SDS011;11603;44.910;8.630;2023-05-09T07:13:22;33.15;;;28.35;;
22871;SDS011;11603;44.910;8.630;2023-05-09T07:15:47;32.83;;;26.55;;
22871;SDS011;11603;44.910;8.630;2023-05-09T07:18:13;31.08;;;27.55;;
22871;SDS011;11603;44.910;8.630;2023-05-09T07:20:38;37.05;;;28.70;;
22871;SDS011;11603;44.910;8.630;2023-05-09T07:23:04;34.88;;;26.42;;
22871;SDS011;11603;44.910;8.630;2023-05-09T07:25:30;32.25;;;27.52;;
22871;SDS011;11603;44.910;8.630;2023-05-09T07:27:55;33.58;;;28.17;;
22871;SDS011;11603;44.910;8.630;2023-05-09T07:30:21;36.08;;;27.92;;
22871;SDS011;11603;44.910;8.630;2023-05-09T07:32:46;37.70;;;28.67;;
22871;SDS011;11603;44.910;8.630;2023-05-09T07:35:12;37.72;;;29.95;;
22871;SDS011;11603;44.910;8.630;2023-05-09T07:37:37;34.03;;;28.83;;
22871;SDS011;11603;44.910;8.630;2023-05-09T07:40:03;35.85;;;28.88;;
22871;SDS011;11603;44.910;8.630;2023-05-09T07:42:30;36.72;;;29.92;;
22871;SDS011;11603;44.910;8.630;2023-05-09T07:44:56;37.42;;;28.73;;
22871;SDS011;11603;44.910;8.630;2023-05-09T07:47:23;35.38;;;29.48;;
22871;SDS011;11603;44.910;8.630;2023-05-09T07:49:48;38.10;;;30.17;;
22871;SDS011;11603;44.910;8.630;2023-05-09T07:52:14;37.42;;;29.65;;
22871;SDS011;11603;44.910;8.630;2023-05-09T07:54:41;37.50;;;29.25;;
22871;SDS011;11603;44.910;8.630;2023-05-09T07:57:06;35.78;;;29.17;;
22871;SDS011;11603;44.910;8.630;2023-05-09T07:59:32;34.85;;;27.88;;
22871;SDS011;11603;44.910;8.630;2023-05-09T08:01:57;35.45;;;27.98;;
22871;SDS011;11603;44.910;8.630;2023-05-09T08:04:23;33.85;;;27.95;;
22871;SDS011;11603;44.910;8.630;2023-05-09T08:06:48;33.67;;;28.30;;
22871;SDS011;11603;44.910;8.630;2023-05-09T08:09:14;36.15;;;29.13;;
22871;SDS011;11603;44.910;8.630;2023-05-09T08:11:39;37.42;;;27.77;;
22871;SDS011;11603;44.910;8.630;2023-05-09T08:14:05;34.50;;;27.77;;
22871;SDS011;11603;44.910;8.630;2023-05-09T08:16:30;35.97;;;29.63;;
22871;SDS011;11603;44.910;8.630;2023-05-09T08:18:55;34.58;;;29.15;;
22871;SDS011;11603;44.910;8.630;2023-05-09T08:21:21;35.05;;;29.15;;
22871;SDS011;11603;44.910;8.630;2023-05-09T08:23:46;32.72;;;27.55;;
22871;SDS011;11603;44.910;8.630;2023-05-09T08:26:12;38.40;;;28.75;;
22871;SDS011;11603;44.910;8.630;2023-05-09T08:28:39;33.05;;;27.95;;
22871;SDS011;11603;44.910;8.630;2023-05-09T08:31:04;34.40;;;27.75;;
22871;SDS011;11603;44.910;8.630;2023-05-09T08:33:30;34.17;;;28.38;;
22871;SDS011;11603;44.910;8.630;2023-05-09T08:35:55;35.35;;;28.30;;
22871;SDS011;11603;44.910;8.630;2023-05-09T08:38:21;30.58;;;26.13;;
22871;SDS011;11603;44.910;8.630;2023-05-09T08:40:46;28.63;;;24.20;;
22871;SDS011;11603;44.910;8.630;2023-05-09T08:43:12;35.10;;;24.38;;
22871;SDS011;11603;44.910;8.630;2023-05-09T08:45:46;26.67;;;21.60;;
22871;SDS011;11603;44.910;8.630;2023-05-09T08:48:15;24.75;;;21.73;;
22871;SDS011;11603;44.910;8.630;2023-05-09T08:50:44;25.83;;;22.58;;
22871;SDS011;11603;44.910;8.630;2023-05-09T08:53:10;28.92;;;22.45;;
22871;SDS011;11603;44.910;8.630;2023-05-09T08:55:36;26.50;;;21.77;;
22871;SDS011;11603;44.910;8.630;2023-05-09T08:58:02;26.00;;;21.45;;
22871;SDS011;11603;44.910;8.630;2023-05-09T09:00:28;39.15;;;24.40;;
22871;SDS011;11603;44.910;8.630;2023-05-09T09:02:57;28.83;;;23.00;;
22871;SDS011;11603;44.910;8.630;2023-05-09T09:05:26;27.73;;;23.55;;
22871;SDS011;11603;44.910;8.630;2023-05-09T09:07:53;24.95;;;21.42;;
22871;SDS011;11603;44.910;8.630;2023-05-09T09:10:21;25.48;;;22.70;;
22871;SDS011;11603;44.910;8.630;2023-05-09T09:12:50;26.95;;;20.70;;
22871;SDS011;11603;44.910;8.630;2023-05-09T09:15:17;26.10;;;21.33;;
22871;SDS011;11603;44.910;8.630;2023-05-09T09:17:44;25.48;;;21.30;;
22871;SDS011;11603;44.910;8.630;2023-05-09T09:20:12;28.30;;;23.73;;
22871;SDS011;11603;44.910;8.630;2023-05-09T09:22:41;33.65;;;23.00;;
22871;SDS011;11603;44.910;8.630;2023-05-09T09:25:07;23.52;;;21.02;;
22871;SDS011;11603;44.910;8.630;2023-05-09T09:27:33;26.38;;;23.40;;
22871;SDS011;11603;44.910;8.630;2023-05-09T09:30:09;27.17;;;22.70;;
22871;SDS011;11603;44.910;8.630;2023-05-09T09:32:35;27.75;;;22.33;;
22871;SDS011;11603;44.910;8.630;2023-05-09T09:35:06;27.02;;;22.40;;
22871;SDS011;11603;44.910;8.630;2023-05-09T09:37:33;30.60;;;25.15;;
22871;SDS011;11603;44.910;8.630;2023-05-09T09:39:59;28.60;;;23.95;;
22871;SDS011;11603;44.910;8.630;2023-05-09T09:42:25;30.30;;;25.65;;
22871;SDS011;11603;44.910;8.630;2023-05-09T09:45:06;28.23;;;24.60;;
22871;SDS011;11603;44.910;8.630;2023-05-09T09:47:33;29.17;;;25.48;;
22871;SDS011;11603;44.910;8.630;2023-05-09T09:50:08;32.38;;;25.42;;
22871;SDS011;11603;44.910;8.630;2023-05-09T09:52:42;31.70;;;26.02;;
22871;SDS011;11603;44.910;8.630;2023-05-09T09:55:16;31.27;;;25.48;;
22871;SDS011;11603;44.910;8.630;2023-05-09T09:57:42;29.63;;;25.38;;
22871;SDS011;11603;44.910;8.630;2023-05-09T10:00:12;31.30;;;25.48;;
22871;SDS011;11603;44.910;8.630;2023-05-09T10:05:22;32.35;;;27.02;;
22871;SDS011;11603;44.910;8.630;2023-05-09T10:07:49;29.70;;;26.40;;
22871;SDS011;11603;44.910;8.630;2023-05-09T10:10:17;33.33;;;26.77;;
22871;SDS011;11603;44.910;8.630;2023-05-09T10:12:43;29.50;;;26.10;;
22871;SDS011;11603;44.910;8.630;2023-05-09T10:15:10;31.75;;;27.10;;
22871;SDS011;11603;44.910;8.630;2023-05-09T10:17:44;30.77;;;25.10;;
22871;SDS011;11603;44.910;8.630;2023-05-09T10:20:10;31.33;;;25.20;;
22871;SDS011;11603;44.910;8.630;2023-05-09T10:22:37;27.98;;;24.35;;
22871;SDS011;11603;44.910;8.630;2023-05-09T10:25:05;30.50;;;25.40;;
22871;SDS011;11603;44.910;8.630;2023-05-09T10:27:37;30.77;;;26.25;;
22871;SDS011;11603;44.910;8.630;2023-05-09T10:30:05;35.22;;;24.85;;
22871;SDS011;11603;44.910;8.630;2023-05-09T10:35:13;28.58;;;25.42;;
22871;SDS011;11603;44.910;8.630;2023-05-09T10:37:41;30.15;;;26.50;;
22871;SDS011;11603;44.910;8.630;2023-05-09T10:40:09;29.65;;;26.25;;
22871;SDS011;11603;44.910;8.630;2023-05-09T10:42:39;32.35;;;24.85;;
22871;SDS011;11603;44.910;8.630;2023-05-09T10:45:07;30.35;;;24.08;;
22871;SDS011;11603;44.910;8.630;2023-05-09T10:47:33;29.30;;;24.33;;
22871;SDS011;11603;44.910;8.630;2023-05-09T10:49:59;31.23;;;24.30;;
22871;SDS011;11603;44.910;8.630;2023-05-09T10:52:30;27.08;;;23.38;;
22871;SDS011;11603;44.910;8.630;2023-05-09T10:55:00;27.20;;;22.45;;
22871;SDS011;11603;44.910;8.630;2023-05-09T10:57:28;26.42;;;22.40;;
22871;SDS011;11603;44.910;8.630;2023-05-09T10:59:54;29.50;;;23.67;;
22871;SDS011;11603;44.910;8.630;2023-05-09T11:02:21;26.27;;;23.42;;
22871;SDS011;11603;44.910;8.630;2023-05-09T11:07:42;25.50;;;22.58;;
22871;SDS011;11603;44.910;8.630;2023-05-09T11:12:54;23.00;;;20.55;;
22871;SDS011;11603;44.910;8.630;2023-05-09T11:15:24;23.08;;;20.58;;
22871;SDS011;11603;44.910;8.630;2023-05-09T11:18:07;24.45;;;20.70;;
22871;SDS011;11603;44.910;8.630;2023-05-09T11:20:34;26.08;;;21.67;;
22871;SDS011;11603;44.910;8.630;2023-05-09T11:23:07;23.00;;;20.70;;
22871;SDS011;11603;44.910;8.630;2023-05-09T11:25:32;25.08;;;20.88;;
22871;SDS011;11603;44.910;8.630;2023-05-09T11:28:01;23.35;;;20.33;;
22871;SDS011;11603;44.910;8.630;2023-05-09T11:30:40;24.77;;;21.35;;
22871;SDS011;11603;44.910;8.630;2023-05-09T11:33:20;23.70;;;21.05;;
22871;SDS011;11603;44.910;8.630;2023-05-09T11:35:47;25.33;;;21.40;;
22871;SDS011;11603;44.910;8.630;2023-05-09T11:38:39;23.02;;;20.63;;
22871;SDS011;11603;44.910;8.630;2023-05-09T11:41:07;23.33;;;20.65;;
22871;SDS011;11603;44.910;8.630;2023-05-09T11:43:36;21.65;;;19.35;;
22871;SDS011;11603;44.910;8.630;2023-05-09T11:46:03;21.00;;;18.38;;
22871;SDS011;11603;44.910;8.630;2023-05-09T11:48:29;23.13;;;19.77;;
22871;SDS011;11603;44.910;8.630;2023-05-09T11:50:55;23.00;;;20.52;;
22871;SDS011;11603;44.910;8.630;2023-05-09T11:53:21;24.30;;;20.73;;
22871;SDS011;11603;44.910;8.630;2023-05-09T11:55:47;24.50;;;20.40;;
22871;SDS011;11603;44.910;8.630;2023-05-09T11:58:13;20.20;;;17.55;;
22871;SDS011;11603;44.910;8.630;2023-05-09T12:00:44;19.00;;;17.15;;
22871;SDS011;11603;44.910;8.630;2023-05-09T12:03:10;22.45;;;18.75;;
22871;SDS011;11603;44.910;8.630;2023-05-09T12:05:36;19.23;;;17.17;;
22871;SDS011;11603;44.910;8.630;2023-05-09T12:08:06;19.52;;;17.45;;
22871;SDS011;11603;44.910;8.630;2023-05-09T12:10:36;20.25;;;17.23;;
22871;SDS011;11603;44.910;8.630;2023-05-09T12:13:02;22.98;;;17.77;;
22871;SDS011;11603;44.910;8.630;2023-05-09T12:15:28;21.65;;;17.85;;
22871;SDS011;11603;44.910;8.630;2023-05-09T12:18:02;19.98;;;16.58;;
22871;SDS011;11603;44.910;8.630;2023-05-09T12:20:39;18.20;;;16.27;;
22871;SDS011;11603;44.910;8.630;2023-05-09T12:23:11;18.60;;;16.35;;
22871;SDS011;11603;44.910;8.630;2023-05-09T12:25:39;20.48;;;14.98;;
22871;SDS011;11603;44.910;8.630;2023-05-09T12:28:11;18.30;;;16.45;;
22871;SDS011;11603;44.910;8.630;2023-05-09T12:30:37;14.48;;;12.80;;
22871;SDS011;11603;44.910;8.630;2023-05-09T12:33:02;15.52;;;13.45;;
22871;SDS011;11603;44.910;8.630;2023-05-09T12:35:28;17.60;;;12.95;;
22871;SDS011;11603;44.910;8.630;2023-05-09T12:37:54;21.17;;;12.13;;
22871;SDS011;11603;44.910;8.630;2023-05-09T12:40:24;20.90;;;10.35;;
22871;SDS011;11603;44.910;8.630;2023-05-09T12:42:49;15.73;;;10.27;;
22871;SDS011;11603;44.910;8.630;2023-05-09T12:45:18;13.00;;;11.68;;
22871;SDS011;11603;44.910;8.630;2023-05-09T12:48:03;13.30;;;11.90;;
22871;SDS011;11603;44.910;8.630;2023-05-09T12:50:32;13.68;;;10.43;;
22871;SDS011;11603;44.910;8.630;2023-05-09T12:52:59;12.23;;;11.02;;
22871;SDS011;11603;44.910;8.630;2023-05-09T12:55:26;14.02;;;12.63;;
22871;SDS011;11603;44.910;8.630;2023-05-09T12:57:58;13.68;;;11.75;;
22871;SDS011;11603;44.910;8.630;2023-05-09T13:00:25;15.40;;;11.25;;
22871;SDS011;11603;44.910;8.630;2023-05-09T13:02:51;13.90;;;11.02;;
22871;SDS011;11603;44.910;8.630;2023-05-09T13:05:18;13.88;;;10.50;;
22871;SDS011;11603;44.910;8.630;2023-05-09T13:07:47;16.75;;;9.13;;
22871;SDS011;11603;44.910;8.630;2023-05-09T13:10:23;11.65;;;9.57;;
22871;SDS011;11603;44.910;8.630;2023-05-09T13:12:52;10.38;;;9.38;;
22871;SDS011;11603;44.910;8.630;2023-05-09T13:15:19;13.23;;;9.10;;
22871;SDS011;11603;44.910;8.630;2023-05-09T13:17:49;10.05;;;9.10;;
22871;SDS011;11603;44.910;8.630;2023-05-09T13:20:16;9.00;;;7.97;;
22871;SDS011;11603;44.910;8.630;2023-05-09T13:22:42;10.90;;;7.82;;
22871;SDS011;11603;44.910;8.630;2023-05-09T13:25:09;8.73;;;7.50;;
22871;SDS011;11603;44.910;8.630;2023-05-09T13:27:35;9.23;;;7.72;;
22871;SDS011;11603;44.910;8.630;2023-05-09T13:30:01;8.77;;;7.85;;
22871;SDS011;11603;44.910;8.630;2023-05-09T13:32:27;8.73;;;7.75;;
22871;SDS011;11603;44.910;8.630;2023-05-09T13:34:53;8.75;;;7.32;;
22871;SDS011;11603;44.910;8.630;2023-05-09T13:37:19;10.27;;;7.35;;
22871;SDS011;11603;44.910;8.630;2023-05-09T13:39:45;7.57;;;6.07;;
22871;SDS011;11603;44.910;8.630;2023-05-09T13:42:10;7.60;;;6.00;;
22871;SDS011;11603;44.910;8.630;2023-05-09T13:44:36;6.35;;;5.55;;
22871;SDS011;11603;44.910;8.630;2023-05-09T13:47:02;6.97;;;5.45;;
22871;SDS011;11603;44.910;8.630;2023-05-09T13:49:27;8.23;;;5.82;;
22871;SDS011;11603;44.910;8.630;2023-05-09T13:51:53;7.50;;;6.72;;
22871;SDS011;11603;44.910;8.630;2023-05-09T13:54:19;7.60;;;5.97;;
22871;SDS011;11603;44.910;8.630;2023-05-09T13:56:47;6.97;;;6.25;;
22871;SDS011;11603;44.910;8.630;2023-05-09T13:59:13;7.82;;;5.80;;
22871;SDS011;11603;44.910;8.630;2023-05-09T14:01:38;9.43;;;5.97;;
22871;SDS011;11603;44.910;8.630;2023-05-09T14:04:04;7.30;;;5.88;;
22871;SDS011;11603;44.910;8.630;2023-05-09T14:06:30;6.10;;;5.50;;
22871;SDS011;11603;44.910;8.630;2023-05-09T14:08:55;8.85;;;5.72;;
22871;SDS011;11603;44.910;8.630;2023-05-09T14:11:21;5.50;;;5.00;;
22871;SDS011;11603;44.910;8.630;2023-05-09T14:13:47;8.43;;;5.28;;
22871;SDS011;11603;44.910;8.630;2023-05-09T14:16:13;5.40;;;4.70;;
22871;SDS011;11603;44.910;8.630;2023-05-09T14:18:38;5.43;;;4.93;;
22871;SDS011;11603;44.910;8.630;2023-05-09T14:21:04;12.23;;;4.90;;
22871;SDS011;11603;44.910;8.630;2023-05-09T14:23:30;6.50;;;4.78;;
22871;SDS011;11603;44.910;8.630;2023-05-09T14:25:56;8.13;;;5.65;;
22871;SDS011;11603;44.910;8.630;2023-05-09T14:28:22;5.93;;;4.72;;
22871;SDS011;11603;44.910;8.630;2023-05-09T14:30:48;5.65;;;5.13;;
22871;SDS011;11603;44.910;8.630;2023-05-09T14:33:13;6.85;;;4.53;;
22871;SDS011;11603;44.910;8.630;2023-05-09T14:35:39;5.32;;;4.60;;
22871;SDS011;11603;44.910;8.630;2023-05-09T14:38:05;5.28;;;4.32;;
22871;SDS011;11603;44.910;8.630;2023-05-09T14:40:30;7.45;;;4.50;;
22871;SDS011;11603;44.910;8.630;2023-05-09T14:42:59;6.72;;;4.35;;
22871;SDS011;11603;44.910;8.630;2023-05-09T14:45:28;7.60;;;4.30;;
22871;SDS011;11603;44.910;8.630;2023-05-09T14:47:55;7.68;;;4.82;;